createdAt,value
2023-01-04T00:00:39.187Z,3.13
2023-01-04T00:01:41.488Z,3.13
2023-01-04T00:02:44.028Z,3.13
2023-01-04T00:03:46.899Z,3.21
2023-01-04T00:04:49.241Z,3.21
2023-01-04T00:05:51.476Z,3.21
2023-01-04T00:06:54.398Z,3.25
2023-01-04T00:07:58.629Z,3.20
2023-01-04T00:09:00.841Z,3.17
2023-01-04T00:10:03.290Z,3.15
2023-01-04T00:11:08.582Z,3.14
2023-01-04T00:12:10.927Z,3.11
2023-01-04T00:13:13.151Z,3.12
2023-01-04T00:14:17.181Z,3.00
2023-01-04T00:15:19.404Z,2.95
2023-01-04T00:16:24.297Z,3.03
2023-01-04T00:17:26.555Z,3.21
2023-01-04T00:18:30.384Z,3.25
2023-01-04T00:19:32.770Z,3.13
2023-01-04T00:20:35.008Z,2.95
2023-01-04T00:21:37.178Z,3.05
2023-01-04T00:22:39.394Z,2.92
2023-01-04T00:23:42.912Z,2.93
2023-01-04T00:24:45.708Z,2.86
2023-01-04T00:25:47.955Z,2.99
2023-01-04T00:26:50.302Z,3.03
2023-01-04T00:27:52.791Z,3.10
2023-01-04T00:28:57.044Z,3.12
2023-01-04T00:29:59.268Z,3.17
2023-01-04T00:31:03.873Z,3.25
2023-01-04T00:32:06.230Z,3.27
2023-01-04T00:33:08.444Z,3.30
2023-01-04T00:34:13.453Z,3.35
2023-01-04T00:35:33.187Z,3.37
2023-01-04T00:36:38.126Z,3.37
2023-01-04T00:37:40.367Z,3.32
2023-01-04T00:38:42.873Z,3.34
2023-01-04T00:39:45.085Z,3.31
2023-01-04T00:40:47.355Z,3.33
2023-01-04T00:42:00.136Z,3.32
2023-01-04T00:43:02.664Z,3.32
2023-01-04T00:44:09.138Z,3.33
2023-01-04T00:45:11.387Z,3.15
2023-01-04T00:46:13.682Z,2.94
2023-01-04T00:47:15.859Z,3.02
2023-01-04T00:48:18.116Z,3.09
2023-01-04T00:49:23.392Z,3.15
2023-01-04T00:50:25.689Z,3.26
2023-01-04T00:51:29.862Z,3.28
2023-01-04T00:52:32.062Z,3.32
2023-01-04T00:53:34.380Z,3.31
2023-01-04T00:54:36.624Z,3.35
2023-01-04T00:55:38.864Z,3.34
2023-01-04T00:56:41.497Z,3.34
2023-01-04T00:57:43.707Z,3.40
2023-01-04T00:58:46.026Z,3.34
2023-01-04T00:59:48.173Z,3.30
2023-01-04T01:00:50.668Z,3.27
2023-01-04T01:01:53.356Z,3.30
2023-01-04T01:02:55.902Z,3.30
2023-01-04T01:04:00.567Z,3.26
2023-01-04T01:05:02.812Z,3.18
2023-01-04T01:06:06.441Z,3.19
2023-01-04T01:07:08.665Z,3.16
2023-01-04T01:08:26.176Z,3.19
2023-01-04T01:09:28.411Z,3.07
2023-01-04T01:10:30.595Z,2.82
2023-01-04T01:11:33.243Z,2.85
2023-01-04T01:12:35.541Z,2.80
2023-01-04T01:13:38.357Z,2.66
2023-01-04T01:14:40.601Z,2.44
2023-01-04T01:15:42.913Z,2.33
2023-01-04T01:16:55.210Z,2.33
2023-01-04T01:17:59.083Z,2.31
2023-01-04T01:19:01.283Z,2.41
2023-01-04T01:20:04.659Z,2.38
2023-01-04T01:21:09.429Z,2.38
2023-01-04T01:22:11.586Z,2.44
2023-01-04T01:23:15.005Z,2.49
2023-01-04T01:24:19.530Z,2.46
2023-01-04T01:25:21.824Z,2.38
2023-01-04T01:26:25.409Z,2.35
2023-01-04T01:27:28.475Z,2.23
2023-01-04T01:28:31.145Z,2.13
2023-01-04T01:29:33.474Z,2.17
2023-01-04T01:30:40.607Z,2.22
2023-01-04T01:31:42.907Z,2.32
2023-01-04T01:32:45.126Z,2.31
2023-01-04T01:33:49.020Z,2.40
2023-01-04T01:34:51.299Z,2.51
2023-01-04T01:35:53.588Z,2.54
2023-01-04T01:36:56.292Z,2.55
2023-01-04T01:37:58.497Z,2.60
2023-01-04T01:39:00.830Z,2.71
2023-01-04T01:40:03.164Z,2.71
2023-01-04T01:41:07.443Z,2.68
2023-01-04T01:42:18.976Z,2.61
2023-01-04T01:43:42.603Z,2.52
2023-01-04T01:44:45.262Z,2.26
2023-01-04T01:45:53.083Z,2.19
2023-01-04T01:46:55.654Z,2.14
2023-01-04T01:48:04.963Z,2.01
2023-01-04T01:49:30.710Z,1.89
2023-01-04T01:50:38.908Z,1.92
2023-01-04T01:51:41.987Z,1.97
2023-01-04T01:52:44.300Z,2.04
2023-01-04T01:53:49.696Z,2.14
2023-01-04T01:55:01.144Z,2.19
2023-01-04T01:56:06.011Z,2.19
2023-01-04T01:57:10.634Z,2.21
2023-01-04T01:58:37.090Z,2.22
2023-01-04T01:59:42.575Z,2.22
2023-01-04T02:01:38.696Z,2.10
2023-01-04T02:02:53.713Z,1.99
2023-01-04T02:03:56.447Z,2.00
2023-01-04T02:05:02.023Z,1.97
2023-01-04T02:06:08.505Z,2.00
2023-01-04T02:07:13.139Z,2.06
2023-01-04T02:08:16.389Z,2.06
2023-01-04T02:09:20.393Z,2.04
2023-01-04T02:10:24.241Z,1.91
2023-01-04T02:11:27.068Z,1.99
2023-01-04T02:12:29.316Z,1.97
2023-01-04T02:13:52.349Z,1.84
2023-01-04T02:14:54.574Z,1.98
2023-01-04T02:16:15.211Z,2.05
2023-01-04T02:17:36.340Z,1.97
2023-01-04T02:18:50.544Z,1.93
2023-01-04T02:20:11.192Z,1.57
2023-01-04T02:21:41.792Z,1.51
2023-01-04T02:23:02.658Z,1.39
2023-01-04T02:24:26.092Z,1.18
2023-01-04T02:25:49.757Z,1.24
2023-01-04T02:26:57.441Z,1.31
2023-01-04T02:28:03.978Z,1.33
2023-01-04T02:29:47.972Z,1.29
2023-01-04T02:30:57.400Z,1.24
2023-01-04T02:32:36.779Z,1.25
2023-01-04T02:33:56.929Z,1.31
2023-01-04T02:35:24.305Z,1.45
2023-01-04T02:36:54.512Z,1.24
2023-01-04T02:38:24.299Z,1.28
2023-01-04T02:39:32.504Z,1.38
2023-01-04T02:40:46.213Z,1.39
2023-01-04T02:42:15.338Z,1.24
2023-01-04T02:43:46.989Z,1.26
2023-01-04T02:44:57.951Z,1.26
2023-01-04T02:46:25.894Z,1.28
2023-01-04T02:47:46.580Z,1.24
2023-01-04T02:49:27.419Z,1.27
2023-01-04T02:50:37.359Z,1.48
2023-01-04T02:51:39.635Z,1.47
2023-01-04T02:52:41.896Z,1.53
2023-01-04T02:53:44.106Z,1.66
2023-01-04T02:54:49.295Z,1.75
2023-01-04T02:56:35.322Z,1.80
2023-01-04T02:57:43.351Z,1.85
2023-01-04T02:59:07.111Z,1.92
2023-01-04T03:00:18.156Z,1.87
2023-01-04T03:02:01.423Z,1.87
2023-01-04T03:03:36.345Z,1.82
2023-01-04T03:05:09.192Z,1.89
2023-01-04T03:06:23.048Z,1.68
2023-01-04T03:07:33.804Z,1.66
2023-01-04T03:08:47.762Z,1.57
2023-01-04T03:09:53.240Z,1.45
2023-01-04T03:11:26.958Z,1.38
2023-01-04T03:12:32.878Z,1.36
2023-01-04T03:13:42.644Z,1.44
2023-01-04T03:14:52.104Z,1.57
2023-01-04T03:15:59.816Z,1.61
2023-01-04T03:17:06.929Z,1.77
2023-01-04T03:18:18.331Z,1.83
2023-01-04T03:19:42.305Z,1.86
2023-01-04T03:20:47.009Z,1.68
2023-01-04T03:21:49.326Z,1.61
2023-01-04T03:23:19.072Z,1.49
2023-01-04T03:24:40.135Z,1.55
2023-01-04T03:26:05.266Z,1.67
2023-01-04T03:27:26.837Z,2.00
2023-01-04T03:28:51.257Z,2.08
2023-01-04T03:30:22.922Z,2.03
2023-01-04T03:32:06.761Z,1.87
2023-01-04T03:33:27.775Z,1.97
2023-01-04T03:34:48.783Z,1.86
2023-01-04T03:35:58.233Z,1.92
2023-01-04T03:37:06.251Z,1.91
2023-01-04T03:38:41.308Z,1.91
2023-01-04T03:40:07.984Z,1.89
2023-01-04T03:41:37.170Z,1.79
2023-01-04T03:43:15.117Z,1.93
2023-01-04T03:45:10.316Z,2.07
2023-01-04T03:46:50.854Z,2.15
2023-01-04T03:48:31.489Z,2.05
2023-01-04T03:49:48.367Z,2.16
2023-01-04T03:50:56.911Z,2.25
2023-01-04T03:52:02.187Z,2.35
2023-01-04T03:53:07.361Z,2.49
2023-01-04T03:54:20.382Z,2.61
2023-01-04T03:55:24.077Z,2.62
2023-01-04T03:56:29.296Z,2.56
2023-01-04T03:57:33.299Z,2.56
2023-01-04T03:58:36.274Z,2.48
2023-01-04T03:59:43.818Z,2.50
2023-01-04T04:00:47.321Z,2.40
2023-01-04T04:01:50.139Z,2.45
2023-01-04T04:02:52.419Z,2.63
2023-01-04T04:04:13.936Z,2.81
2023-01-04T04:05:40.641Z,2.80
2023-01-04T04:07:01.942Z,2.70
2023-01-04T04:08:22.957Z,2.86
2023-01-04T04:09:25.406Z,2.48
2023-01-04T04:10:27.788Z,2.31
2023-01-04T04:11:30.130Z,2.34
2023-01-04T04:12:32.556Z,2.21
2023-01-04T04:13:34.802Z,2.16
2023-01-04T04:14:37.119Z,2.21
2023-01-04T04:15:39.900Z,2.24
2023-01-04T04:16:42.262Z,2.33
2023-01-04T04:17:44.545Z,2.30
2023-01-04T04:18:48.133Z,2.20
2023-01-04T04:19:50.338Z,2.26
2023-01-04T04:20:58.074Z,2.34
2023-01-04T04:22:00.292Z,2.49
2023-01-04T04:23:02.611Z,2.42
2023-01-04T04:24:05.311Z,2.32
2023-01-04T04:25:08.003Z,2.36
2023-01-04T04:26:10.449Z,2.27
2023-01-04T04:27:12.606Z,2.26
2023-01-04T04:28:14.807Z,2.39
2023-01-04T04:29:17.863Z,2.55
2023-01-04T04:30:20.136Z,2.59
2023-01-04T04:31:22.447Z,2.65
2023-01-04T04:32:24.747Z,2.52
2023-01-04T04:33:27.017Z,2.38
2023-01-04T04:34:29.213Z,2.39
2023-01-04T04:35:31.470Z,2.42
2023-01-04T04:36:33.724Z,2.51
2023-01-04T04:37:37.143Z,2.34
2023-01-04T04:38:39.479Z,2.30
2023-01-04T04:39:41.680Z,2.29
2023-01-04T04:41:02.751Z,2.27
2023-01-04T04:42:05.095Z,2.48
2023-01-04T04:43:08.408Z,2.46
2023-01-04T04:44:13.770Z,2.36
2023-01-04T04:45:16.016Z,2.31
2023-01-04T04:46:18.866Z,2.35
2023-01-04T04:47:21.072Z,2.53
2023-01-04T04:48:23.337Z,2.65
2023-01-04T04:49:25.628Z,2.73
2023-01-04T04:50:27.970Z,2.64
2023-01-04T04:51:30.242Z,2.71
2023-01-04T04:52:32.504Z,2.60
2023-01-04T04:53:34.796Z,2.48
2023-01-04T04:54:37.109Z,2.40
2023-01-04T04:55:39.429Z,2.37
2023-01-04T04:56:41.683Z,2.42
2023-01-04T04:57:43.908Z,2.51
2023-01-04T04:58:46.207Z,2.62
2023-01-04T04:59:48.444Z,2.68
2023-01-04T05:00:50.694Z,2.63
2023-01-04T05:01:53.019Z,2.65
2023-01-04T05:02:58.920Z,2.64
2023-01-04T05:04:01.222Z,2.70
2023-01-04T05:05:03.571Z,2.68
2023-01-04T05:06:06.325Z,2.77
2023-01-04T05:07:12.402Z,2.82
2023-01-04T05:08:15.153Z,2.77
2023-01-04T05:09:17.582Z,2.71
2023-01-04T05:10:19.887Z,2.65
2023-01-04T05:11:42.228Z,2.62
2023-01-04T05:13:02.410Z,2.70
2023-01-04T05:14:04.726Z,2.72
2023-01-04T05:15:07.351Z,2.75
2023-01-04T05:16:10.319Z,2.78
2023-01-04T05:17:12.528Z,2.76
2023-01-04T05:18:17.251Z,2.70
2023-01-04T05:19:19.409Z,2.72
2023-01-04T05:20:21.575Z,2.71
2023-01-04T05:21:23.830Z,2.76
2023-01-04T05:22:26.149Z,2.85
2023-01-04T05:23:28.561Z,3.00
2023-01-04T05:24:30.786Z,3.17
2023-01-04T05:25:33.767Z,3.31
2023-01-04T05:26:35.957Z,3.35
2023-01-04T05:27:38.395Z,3.44
2023-01-04T05:28:40.628Z,3.47
2023-01-04T05:30:01.196Z,3.44
2023-01-04T05:31:03.408Z,3.48
2023-01-04T05:32:05.850Z,3.51
2023-01-04T05:33:09.188Z,3.59
2023-01-04T05:34:11.933Z,3.65
2023-01-04T05:35:16.205Z,3.75
2023-01-04T05:36:18.399Z,3.85
2023-01-04T05:37:20.676Z,3.86
2023-01-04T05:38:23.431Z,3.83
2023-01-04T05:39:25.639Z,3.85
2023-01-04T05:40:28.065Z,3.74
2023-01-04T05:41:48.527Z,3.78
2023-01-04T05:42:51.141Z,3.54
2023-01-04T05:43:53.407Z,3.57
2023-01-04T05:44:57.383Z,3.56
2023-01-04T05:45:59.739Z,3.52
2023-01-04T05:47:02.111Z,3.61
2023-01-04T05:48:04.647Z,3.57
2023-01-04T05:49:06.816Z,3.65
2023-01-04T05:50:10.360Z,3.67
2023-01-04T05:51:12.806Z,3.77
2023-01-04T05:52:15.083Z,3.93
2023-01-04T05:53:18.264Z,4.03
2023-01-04T05:54:21.710Z,4.10
2023-01-04T05:55:24.207Z,4.13
2023-01-04T05:56:26.409Z,4.20
2023-01-04T05:57:28.671Z,4.26
2023-01-04T05:58:31.018Z,4.28
2023-01-04T05:59:37.257Z,4.37
2023-01-04T06:00:43.671Z,4.47
2023-01-04T06:01:45.979Z,4.42
2023-01-04T06:02:48.411Z,4.41
2023-01-04T06:03:51.095Z,4.44
2023-01-04T06:04:58.784Z,4.33
2023-01-04T06:06:01.830Z,4.25
2023-01-04T06:07:04.079Z,4.31
2023-01-04T06:08:06.401Z,4.27
2023-01-04T06:09:08.807Z,4.28
2023-01-04T06:10:12.892Z,4.33
2023-01-04T06:11:15.154Z,4.39
2023-01-04T06:12:17.455Z,4.48
2023-01-04T06:13:20.539Z,4.45
2023-01-04T06:14:22.722Z,4.39
2023-01-04T06:15:24.981Z,4.36
2023-01-04T06:16:27.331Z,4.40
2023-01-04T06:17:29.579Z,4.32
2023-01-04T06:18:31.817Z,4.36
2023-01-04T06:19:34.695Z,4.36
2023-01-04T06:20:36.937Z,4.37
2023-01-04T06:21:39.168Z,4.33
2023-01-04T06:22:41.689Z,4.31
2023-01-04T06:23:43.948Z,4.26
2023-01-04T06:24:46.238Z,4.16
2023-01-04T06:25:48.510Z,4.00
2023-01-04T06:26:50.949Z,3.92
2023-01-04T06:27:53.095Z,3.86
2023-01-04T06:28:55.315Z,3.71
2023-01-04T06:29:57.731Z,3.70
2023-01-04T06:31:07.648Z,3.68
2023-01-04T06:32:10.181Z,3.71
2023-01-04T06:33:12.371Z,3.62
2023-01-04T06:34:15.210Z,3.70
2023-01-04T06:35:17.387Z,3.72
2023-01-04T06:36:20.329Z,3.71
2023-01-04T06:37:23.189Z,3.83
2023-01-04T06:38:25.556Z,3.76
2023-01-04T06:39:27.863Z,3.91
2023-01-04T06:40:30.119Z,3.93
2023-01-04T06:41:32.362Z,3.86
2023-01-04T06:42:46.450Z,3.91
2023-01-04T06:43:49.133Z,3.78
2023-01-04T06:44:51.347Z,3.86
2023-01-04T06:45:53.741Z,3.95
2023-01-04T06:46:56.030Z,4.03
2023-01-04T06:47:58.258Z,4.12
2023-01-04T06:49:00.518Z,4.16
2023-01-04T06:50:02.945Z,4.14
2023-01-04T06:51:05.248Z,3.95
2023-01-04T06:52:07.521Z,3.84
2023-01-04T06:53:09.939Z,3.86
2023-01-04T06:54:12.205Z,3.82
2023-01-04T06:55:14.540Z,3.79
2023-01-04T06:56:16.805Z,3.66
2023-01-04T06:57:19.058Z,3.79
2023-01-04T06:58:21.305Z,3.71
2023-01-04T06:59:23.545Z,3.81
2023-01-04T07:03:12.668Z,4.00
2023-01-04T07:04:09.172Z,3.98
2023-01-04T07:05:11.519Z,3.91
2023-01-04T07:06:13.807Z,3.82
2023-01-04T07:07:15.976Z,3.91
2023-01-04T07:08:18.190Z,4.08
2023-01-04T07:09:20.388Z,4.17
2023-01-04T07:10:22.590Z,4.19
2023-01-04T07:11:24.886Z,4.11
2023-01-04T07:12:27.273Z,3.96
2023-01-04T07:13:29.495Z,3.90
2023-01-04T07:14:31.691Z,4.05
2023-01-04T07:15:38.635Z,4.26
2023-01-04T07:16:42.944Z,4.38
2023-01-04T07:17:48.034Z,4.41
2023-01-04T07:18:50.231Z,4.44
2023-01-04T07:19:52.710Z,4.46
2023-01-04T07:20:55.039Z,4.45
2023-01-04T07:21:58.664Z,4.36
2023-01-04T07:23:00.880Z,4.45
2023-01-04T07:24:03.228Z,4.57
2023-01-04T07:25:05.836Z,4.71
2023-01-04T07:26:08.111Z,4.78
2023-01-04T07:27:11.059Z,4.70
2023-01-04T07:28:33.374Z,4.59
2023-01-04T07:29:35.886Z,4.75
2023-01-04T07:30:38.164Z,4.72
2023-01-04T07:31:40.592Z,4.79
2023-01-04T07:32:42.845Z,4.87
2023-01-04T07:33:45.095Z,4.94
2023-01-04T07:34:47.384Z,5.01
2023-01-04T07:35:49.665Z,5.05
2023-01-04T07:36:52.313Z,5.02
2023-01-04T07:37:58.809Z,5.11
2023-01-04T07:39:01.825Z,5.18
2023-01-04T07:40:04.847Z,5.21
2023-01-04T07:41:07.003Z,5.17
2023-01-04T07:42:10.254Z,5.23
2023-01-04T07:43:12.452Z,5.21
2023-01-04T07:44:15.842Z,5.23
2023-01-04T07:45:18.144Z,5.28
2023-01-04T07:46:22.035Z,5.21
2023-01-04T07:47:24.499Z,5.04
2023-01-04T07:48:29.369Z,4.99
2023-01-04T07:49:31.679Z,5.06
2023-01-04T07:50:34.173Z,5.08
2023-01-04T07:51:36.475Z,5.22
2023-01-04T07:52:38.742Z,5.27
2023-01-04T07:53:40.954Z,5.21
2023-01-04T07:54:43.203Z,5.28
2023-01-04T07:55:45.619Z,5.34
2023-01-04T07:56:48.167Z,5.42
2023-01-04T07:57:53.229Z,5.47
2023-01-04T07:58:57.467Z,5.44
2023-01-04T07:59:59.800Z,5.50
2023-01-04T08:01:09.750Z,5.50
2023-01-04T08:02:13.123Z,5.52
2023-01-04T08:03:15.779Z,5.55
2023-01-04T08:04:21.808Z,5.63
2023-01-04T08:05:25.146Z,5.79
2023-01-04T08:06:27.553Z,5.85
2023-01-04T08:07:29.757Z,5.96
2023-01-04T08:08:32.170Z,5.96
2023-01-04T08:09:34.368Z,6.07
2023-01-04T08:10:36.693Z,5.52
2023-01-04T08:11:39.048Z,5.64
2023-01-04T08:12:41.286Z,5.54
2023-01-04T08:13:44.086Z,5.21
2023-01-04T08:14:46.280Z,5.33
2023-01-04T08:15:55.035Z,5.32
2023-01-04T08:16:57.314Z,5.39
2023-01-04T08:17:59.528Z,5.39
2023-01-04T08:19:20.405Z,5.21
2023-01-04T08:20:22.650Z,5.32
2023-01-04T08:21:25.661Z,5.25
2023-01-04T08:22:27.871Z,5.25
2023-01-04T08:23:30.174Z,5.36
2023-01-04T08:24:32.451Z,5.51
2023-01-04T08:25:34.666Z,5.65
2023-01-04T08:26:36.844Z,5.69
2023-01-04T08:27:39.123Z,5.84
2023-01-04T08:28:42.144Z,5.80
2023-01-04T08:29:44.498Z,6.00
2023-01-04T08:30:46.718Z,6.00
2023-01-04T08:31:48.978Z,6.01
2023-01-04T08:32:53.512Z,5.92
2023-01-04T08:33:57.162Z,6.01
2023-01-04T08:34:59.445Z,6.26
2023-01-04T08:36:35.280Z,6.54
2023-01-04T08:37:37.505Z,6.68
2023-01-04T08:40:02.290Z,6.85
2023-01-04T08:41:31.022Z,6.95
2023-01-04T08:42:31.591Z,7.06
2023-01-04T08:43:35.882Z,7.23
2023-01-04T08:44:38.397Z,7.35
2023-01-04T08:45:40.684Z,7.48
2023-01-04T08:46:43.123Z,7.53
2023-01-04T08:47:45.374Z,7.59
2023-01-04T08:48:47.621Z,7.70
2023-01-04T08:49:49.842Z,7.81
2023-01-04T08:50:52.040Z,7.84
2023-01-04T08:51:54.241Z,7.80
2023-01-04T08:52:56.458Z,7.86
2023-01-04T08:53:59.112Z,7.90
2023-01-04T08:55:04.369Z,7.96
2023-01-04T08:56:09.507Z,7.98
2023-01-04T08:57:11.754Z,7.99
2023-01-04T08:58:13.951Z,8.04
2023-01-04T08:59:16.278Z,8.01
2023-01-04T09:00:21.597Z,8.06
2023-01-04T09:01:23.916Z,8.15
2023-01-04T09:02:28.211Z,8.14
2023-01-04T09:03:31.112Z,8.15
2023-01-04T09:04:33.585Z,8.13
2023-01-04T09:05:35.957Z,8.20
2023-01-04T09:06:39.482Z,8.31
2023-01-04T09:07:41.828Z,8.39
2023-01-04T09:08:44.499Z,8.44
2023-01-04T09:09:46.860Z,8.45
2023-01-04T09:10:49.007Z,8.45
2023-01-04T09:11:51.282Z,8.53
2023-01-04T09:12:53.567Z,8.55
2023-01-04T09:14:06.397Z,8.56
2023-01-04T09:15:09.975Z,8.66
2023-01-04T09:16:17.868Z,8.72
2023-01-04T09:17:20.100Z,8.61
2023-01-04T09:18:31.449Z,8.62
2023-01-04T09:19:34.781Z,8.48
2023-01-04T09:20:37.458Z,8.62
2023-01-04T09:21:39.756Z,8.56
2023-01-04T09:22:42.282Z,8.60
2023-01-04T09:23:45.551Z,8.64
2023-01-04T09:24:47.728Z,8.64
2023-01-04T09:25:50.456Z,8.65
2023-01-04T09:26:52.710Z,8.78
2023-01-04T09:27:55.006Z,8.83
2023-01-04T09:28:57.347Z,8.85
2023-01-04T09:30:00.443Z,8.90
2023-01-04T09:31:11.500Z,8.81
2023-01-04T09:32:16.865Z,8.89
2023-01-04T09:33:19.269Z,8.95
2023-01-04T09:34:21.495Z,9.00
2023-01-04T09:35:23.808Z,9.11
2023-01-04T09:36:26.179Z,9.06
2023-01-04T09:37:28.763Z,8.98
2023-01-04T09:38:33.239Z,9.07
2023-01-04T09:39:35.543Z,9.20
2023-01-04T09:40:47.688Z,9.11
2023-01-04T09:41:55.800Z,9.24
2023-01-04T09:43:21.170Z,9.29
2023-01-04T09:45:21.917Z,9.27
2023-01-04T09:46:13.621Z,9.28
2023-01-04T09:47:19.600Z,9.45
2023-01-04T09:48:26.911Z,9.43
2023-01-04T09:49:41.317Z,9.48
2023-01-04T09:50:54.421Z,9.47
2023-01-04T09:52:21.734Z,9.54
2023-01-04T09:53:31.085Z,9.48
2023-01-04T09:54:45.538Z,9.54
2023-01-04T09:55:50.705Z,9.58
2023-01-04T09:56:58.579Z,9.66
2023-01-04T09:58:08.087Z,9.72
2023-01-04T09:59:17.027Z,9.80
2023-01-04T10:00:30.447Z,9.76
2023-01-04T10:01:49.708Z,9.86
2023-01-04T10:03:28.330Z,9.88
2023-01-04T10:04:41.119Z,9.81
2023-01-04T10:05:43.353Z,9.83
2023-01-04T10:06:45.764Z,9.82
2023-01-04T10:07:48.151Z,9.83
2023-01-04T10:08:50.420Z,9.82
2023-01-04T10:09:52.682Z,9.83
2023-01-04T10:11:11.313Z,9.92
2023-01-04T10:12:36.936Z,9.97
2023-01-04T10:14:06.676Z,10.01
2023-01-04T10:15:27.469Z,10.03
2023-01-04T10:21:21.806Z,10.15
2023-01-04T10:22:40.018Z,10.23
2023-01-04T10:23:44.986Z,10.24
2023-01-04T10:24:55.971Z,10.40
2023-01-04T10:26:11.570Z,10.41
2023-01-04T10:27:42.505Z,10.46
2023-01-04T10:29:19.526Z,10.48
2023-01-04T10:30:40.491Z,10.49
2023-01-04T10:32:30.599Z,10.66
2023-01-04T10:33:39.013Z,10.64
2023-01-04T10:34:45.809Z,10.61
2023-01-04T10:35:49.411Z,10.67
2023-01-04T10:36:58.370Z,10.59
2023-01-04T10:38:03.467Z,10.58
2023-01-04T10:39:18.125Z,10.49
2023-01-04T10:40:20.627Z,10.48
2023-01-04T10:41:26.774Z,10.51
2023-01-04T10:42:40.612Z,10.47
2023-01-04T10:44:10.598Z,10.46
2023-01-04T10:45:27.363Z,10.58
2023-01-04T10:46:35.891Z,10.55
2023-01-04T10:48:03.203Z,10.50
2023-01-04T10:49:16.379Z,10.49
2023-01-04T10:50:39.622Z,10.44
2023-01-04T10:51:57.476Z,10.50
2023-01-04T10:53:07.203Z,10.49
2023-01-04T10:54:21.430Z,10.48
2023-01-04T10:56:25.281Z,10.40
2023-01-04T10:57:19.387Z,10.43
2023-01-04T10:58:31.948Z,10.46
2023-01-04T10:59:49.727Z,10.60
2023-01-04T11:01:00.397Z,10.54
2023-01-04T11:02:07.838Z,10.47
2023-01-04T11:03:19.485Z,10.44
2023-01-04T11:04:28.879Z,10.53
2023-01-04T11:05:48.252Z,10.36
2023-01-04T11:07:02.536Z,10.25
2023-01-04T11:08:15.864Z,10.19
2023-01-04T11:09:38.541Z,10.27
2023-01-04T11:11:14.168Z,10.30
2023-01-04T11:12:19.102Z,10.38
2023-01-04T11:13:23.054Z,10.23
2023-01-04T11:14:25.720Z,10.31
2023-01-04T11:15:29.636Z,10.32
2023-01-04T11:16:32.221Z,10.18
2023-01-04T11:17:35.892Z,10.08
2023-01-04T11:18:40.732Z,10.10
2023-01-04T11:19:43.238Z,10.12
2023-01-04T11:20:45.454Z,10.32
2023-01-04T11:22:09.125Z,10.17
2023-01-04T11:23:20.754Z,10.24
2023-01-04T11:24:32.044Z,10.17
2023-01-04T11:25:53.632Z,10.06
2023-01-04T11:27:04.460Z,10.11
2023-01-04T11:28:16.056Z,10.32
2023-01-04T11:29:40.700Z,10.15
2023-01-04T11:30:58.761Z,10.10
2023-01-04T11:32:07.113Z,10.08
2023-01-04T11:33:18.901Z,10.04
2023-01-04T11:34:45.491Z,10.16
2023-01-04T11:35:59.169Z,10.04
2023-01-04T11:37:01.720Z,10.18
2023-01-04T11:38:18.163Z,10.12
2023-01-04T11:39:25.289Z,10.08
2023-01-04T11:40:28.508Z,10.17
2023-01-04T11:41:30.746Z,10.08
2023-01-04T11:42:33.075Z,10.02
2023-01-04T11:43:37.959Z,9.96
2023-01-04T11:44:41.904Z,10.01
2023-01-04T11:45:58.786Z,10.00
2023-01-04T11:47:08.291Z,9.97
2023-01-04T11:48:15.337Z,9.89
2023-01-04T11:49:20.359Z,9.91
2023-01-04T11:50:42.598Z,9.98
2023-01-04T11:51:44.838Z,9.89
2023-01-04T11:52:47.589Z,9.92
2023-01-04T11:54:00.544Z,9.98
2023-01-04T11:55:24.797Z,9.96
2023-01-04T11:56:29.854Z,10.04
2023-01-04T11:57:32.116Z,9.96
2023-01-04T11:58:34.552Z,10.06
2023-01-04T11:59:37.041Z,10.09
2023-01-04T12:00:49.254Z,10.20
2023-01-04T12:02:03.737Z,10.22
2023-01-04T12:03:14.227Z,10.23
2023-01-04T12:04:20.474Z,10.17
2023-01-04T12:05:29.458Z,10.21
2023-01-04T12:06:34.728Z,10.27
2023-01-04T12:07:36.960Z,10.27
2023-01-04T12:08:39.514Z,10.15
2023-01-04T12:09:41.801Z,10.08
2023-01-04T12:10:44.212Z,10.06
2023-01-04T12:11:56.208Z,10.06
2023-01-04T12:13:01.082Z,9.92
2023-01-04T12:14:05.325Z,9.89
2023-01-04T12:15:17.056Z,9.96
2023-01-04T12:16:43.869Z,9.99
2023-01-04T12:17:53.161Z,9.94
2023-01-04T12:18:55.651Z,9.95
2023-01-04T12:20:01.647Z,9.95
2023-01-04T12:21:04.301Z,9.91
2023-01-04T12:22:21.105Z,10.07
2023-01-04T12:23:23.603Z,10.10
2023-01-04T12:24:31.746Z,10.04
2023-01-04T12:26:00.940Z,10.18
2023-01-04T12:27:04.359Z,10.04
2023-01-04T12:28:06.685Z,9.98
2023-01-04T12:29:23.868Z,10.05
2023-01-04T12:30:46.636Z,10.30
2023-01-04T12:32:11.807Z,10.31
2023-01-04T12:33:32.175Z,10.15
2023-01-04T12:34:34.328Z,10.10
2023-01-04T12:35:59.965Z,10.12
2023-01-04T12:37:05.939Z,10.04
2023-01-04T12:38:09.645Z,10.04
2023-01-04T12:39:14.498Z,10.10
2023-01-04T12:40:47.747Z,10.16
2023-01-04T12:42:01.808Z,10.21
2023-01-04T12:43:22.915Z,10.25
2023-01-04T12:44:37.267Z,10.20
2023-01-04T12:45:39.729Z,10.16
2023-01-04T12:47:00.952Z,10.27
2023-01-04T12:48:47.917Z,10.29
2023-01-04T12:49:59.287Z,10.23
2023-01-04T12:51:31.782Z,10.48
2023-01-04T12:52:54.752Z,10.44
2023-01-04T12:54:00.056Z,10.49
2023-01-04T12:55:21.997Z,10.40
2023-01-04T12:57:02.573Z,10.62
2023-01-04T12:59:24.225Z,10.59
2023-01-04T13:00:08.940Z,10.46
2023-01-04T13:01:23.730Z,10.45
2023-01-04T13:02:27.767Z,10.55
2023-01-04T13:03:30.040Z,10.50
2023-01-04T13:04:42.683Z,10.51
2023-01-04T13:05:58.360Z,10.47
2023-01-04T13:07:30.009Z,10.59
2023-01-04T13:08:40.383Z,10.61
2023-01-04T13:09:51.156Z,10.61
2023-01-04T13:10:55.840Z,10.61
2023-01-04T13:12:19.816Z,10.68
2023-01-04T13:13:43.430Z,10.63
2023-01-04T13:14:52.483Z,10.59
2023-01-04T13:16:22.579Z,10.61
2023-01-04T13:17:26.945Z,10.64
2023-01-04T13:18:29.184Z,10.65
2023-01-04T13:19:31.460Z,10.62
2023-01-04T13:20:38.362Z,10.58
2023-01-04T13:21:45.938Z,10.57
2023-01-04T13:22:52.686Z,10.62
2023-01-04T13:24:00.854Z,10.70
2023-01-04T13:25:04.752Z,10.71
2023-01-04T13:26:28.353Z,10.70
2023-01-04T13:27:30.670Z,10.69
2023-01-04T13:28:33.110Z,10.57
2023-01-04T13:29:36.288Z,10.51
2023-01-04T13:30:39.657Z,10.63
2023-01-04T13:31:50.044Z,10.72
2023-01-04T13:33:24.752Z,10.69
2023-01-04T13:34:20.090Z,10.68
2023-01-04T13:35:22.545Z,10.60
2023-01-04T13:36:25.057Z,10.61
2023-01-04T13:37:31.755Z,10.57
2023-01-04T13:38:34.585Z,10.59
2023-01-04T13:39:45.725Z,10.71
2023-01-04T13:40:49.465Z,10.78
2023-01-04T13:41:52.916Z,10.72
2023-01-04T13:43:16.683Z,10.75
2023-01-04T13:46:26.787Z,10.75
2023-01-04T13:47:34.563Z,10.63
2023-01-04T13:48:39.927Z,10.60
2023-01-04T13:49:42.202Z,10.64
2023-01-04T13:51:03.902Z,10.83
2023-01-04T13:53:53.449Z,10.80
2023-01-04T13:55:12.724Z,10.75
2023-01-04T13:56:22.353Z,10.69
2023-01-04T13:57:25.015Z,10.70
2023-01-04T13:58:30.607Z,10.75
2023-01-04T13:59:32.770Z,10.68
2023-01-04T14:00:45.839Z,10.85
2023-01-04T14:01:51.586Z,10.75
2023-01-04T14:03:15.701Z,10.77
2023-01-04T14:04:26.542Z,10.72
2023-01-04T14:05:28.811Z,10.87
2023-01-04T14:06:44.285Z,10.79
2023-01-04T14:07:46.521Z,10.75
2023-01-04T14:08:51.635Z,10.76
2023-01-04T14:09:58.147Z,10.81
2023-01-04T14:11:01.293Z,10.70
2023-01-04T14:12:16.654Z,10.72
2023-01-04T14:13:20.468Z,10.69
2023-01-04T14:14:37.567Z,10.73
2023-01-04T14:15:39.957Z,10.73
2023-01-04T14:16:42.255Z,10.79
2023-01-04T14:17:49.600Z,10.87
2023-01-04T14:18:51.755Z,10.83
2023-01-04T14:19:58.828Z,10.77
2023-01-04T14:21:01.053Z,10.77
2023-01-04T14:22:19.335Z,10.73
2023-01-04T14:23:29.848Z,10.75
2023-01-04T14:25:56.644Z,10.87
2023-01-04T14:26:59.012Z,10.87
2023-01-04T14:28:19.568Z,10.76
2023-01-04T14:29:22.691Z,10.79
2023-01-04T14:30:25.333Z,10.78
2023-01-04T14:31:31.442Z,10.89
2023-01-04T14:32:33.757Z,10.92
2023-01-04T14:33:36.239Z,10.90
2023-01-04T14:34:38.478Z,10.93
2023-01-04T14:35:46.432Z,10.90
2023-01-04T14:37:03.516Z,10.74
2023-01-04T14:38:11.370Z,10.72
2023-01-04T14:39:21.036Z,10.71
2023-01-04T14:40:28.532Z,10.71
2023-01-04T14:41:38.081Z,10.78
2023-01-04T14:42:40.779Z,10.69
2023-01-04T14:43:46.816Z,10.62
2023-01-04T14:44:48.971Z,10.67
2023-01-04T14:45:51.248Z,10.72
2023-01-04T14:46:55.874Z,10.72
2023-01-04T14:47:58.155Z,10.64
2023-01-04T14:49:00.402Z,10.71
2023-01-04T14:50:02.653Z,10.65
2023-01-04T14:51:05.984Z,10.68
2023-01-04T14:52:19.987Z,10.68
2023-01-04T14:53:22.213Z,10.74
2023-01-04T14:54:25.983Z,10.71
2023-01-04T14:55:28.177Z,10.70
2023-01-04T14:56:30.422Z,10.72
2023-01-04T14:57:35.651Z,10.64
2023-01-04T14:58:37.844Z,10.63
2023-01-04T14:59:41.186Z,10.71
2023-01-04T15:00:43.572Z,10.74
2023-01-04T15:01:46.202Z,10.78
2023-01-04T15:02:50.768Z,10.67
2023-01-04T15:03:53.391Z,10.65
2023-01-04T15:04:55.723Z,10.60
2023-01-04T15:05:58.047Z,10.60
2023-01-04T15:07:01.321Z,10.66
2023-01-04T15:08:03.756Z,10.77
2023-01-04T15:09:06.157Z,10.67
2023-01-04T15:10:20.802Z,10.79